Time;durP1;ratioP1;P1;durP2;ratioP2;P2;SDS_P1;SDS_P2;PMS_P1;PMS_P2;Temp;Humidity;BMP_temperature;BMP_pressure;BME280_temperature;BME280_humidity;BME280_pressure;Samples;Min_cycle;Max_cycle;Signal;HPM_P1;HPM_P2
2023/03/12 00:03:08;;;;;;;8.85;2.97;;;;;;;19.48;32.65;100987.03;16124975;19;131396;-51
2023/03/12 00:08:29;;;;;;;7.50;2.83;;;;;;;19.43;32.98;100984.19;16122130;19;130315;-48
2023/03/12 00:13:53;;;;;;;8.15;2.72;;;;;;;19.38;32.79;100973.84;16124553;19;136348;-46
2023/03/12 00:19:15;;;;;;;8.48;3.00;;;;;;;19.34;32.89;100979.03;16120814;19;130667;-48
2023/03/12 00:24:37;;;;;;;6.78;3.05;;;;;;;19.31;32.71;100960.13;16120583;19;130859;-50
2023/03/12 00:29:58;;;;;;;7.97;2.92;;;;;;;19.27;32.58;100956.16;16119532;19;129903;-49
2023/03/12 00:35:20;;;;;;;7.47;2.78;;;;;;;19.24;32.86;100944.75;16117056;19;132034;-53
2023/03/12 00:40:43;;;;;;;6.30;2.38;;;;;;;19.21;32.94;100948.84;16122779;19;129400;-52
2023/03/12 00:46:04;;;;;;;6.05;2.53;;;;;;;19.17;32.78;100951.25;16123818;19;130219;-50
2023/03/12 00:51:26;;;;;;;7.65;2.80;;;;;;;19.15;32.55;100949.81;16119756;19;131457;-52
2023/03/12 00:56:48;;;;;;;7.88;3.28;;;;;;;19.13;32.50;100947.31;16117178;19;129561;-53
2023/03/12 01:02:10;;;;;;;6.82;2.85;;;;;;;19.08;32.56;100936.94;16120552;19;130091;-50
2023/03/12 01:07:32;;;;;;;8.93;3.33;;;;;;;19.06;32.90;100921.66;16115937;19;131684;-52
2023/03/12 01:12:54;;;;;;;6.38;2.53;;;;;;;19.05;32.99;100928.28;16119871;19;129259;-51
2023/03/12 01:18:16;;;;;;;5.70;2.38;;;;;;;19.02;32.72;100931.53;16117848;19;129755;-50
2023/03/12 01:23:38;;;;;;;5.93;2.50;;;;;;;18.98;33.05;100930.38;16109294;19;131980;-53
2023/03/12 01:28:59;;;;;;;6.05;2.60;;;;;;;18.97;32.61;100914.84;16115633;19;129747;-51
2023/03/12 01:34:21;;;;;;;7.15;2.67;;;;;;;18.94;32.75;100909.78;16111877;19;130274;-52
2023/03/12 01:39:43;;;;;;;5.55;2.42;;;;;;;18.91;32.92;100900.03;16112404;19;130906;-52
2023/03/12 01:45:05;;;;;;;5.50;2.53;;;;;;;18.87;33.01;100898.84;16119150;19;130210;-53
2023/03/12 01:50:28;;;;;;;5.38;2.22;;;;;;;18.85;32.61;100889.94;16114801;19;129402;-52
2023/03/12 01:55:50;;;;;;;5.47;2.53;;;;;;;18.83;32.72;100884.66;16116431;19;131431;-54
2023/03/12 02:01:14;;;;;;;3.55;2.25;;;;;;;18.80;32.97;100878.75;16111924;19;130500;-52
2023/03/12 02:06:42;;;;;;;4.55;2.20;;;;;;;18.79;32.58;100874.31;16116339;19;135019;-51
2023/03/12 02:12:05;;;;;;;6.38;2.50;;;;;;;18.76;32.73;100859.84;16111948;19;132130;-46
2023/03/12 02:17:27;;;;;;;6.93;2.90;;;;;;;18.74;32.67;100867.56;16112863;19;131798;-53
2023/03/12 02:22:58;;;;;;;5.05;2.67;;;;;;;18.72;32.57;100860.59;16113204;19;132118;-48
2023/03/12 02:28:22;;;;;;;4.18;2.45;;;;;;;18.69;32.75;100858.31;16111151;19;129306;-52
2023/03/12 02:33:44;;;;;;;4.60;2.45;;;;;;;18.68;32.94;100851.09;16108985;19;131363;-52
2023/03/12 02:39:06;;;;;;;6.03;2.30;;;;;;;18.65;32.74;100846.91;16111163;19;130565;-52
2023/03/12 02:44:36;;;;;;;5.00;2.20;;;;;;;18.64;32.54;100836.91;16113152;19;130967;-52
2023/03/12 02:49:58;;;;;;;5.57;2.17;;;;;;;18.61;32.96;100827.16;16107910;19;129609;-46
2023/03/12 02:55:20;;;;;;;4.18;2.10;;;;;;;18.58;32.41;100824.88;16108844;19;130159;-50
2023/03/12 03:00:41;;;;;;;6.85;2.35;;;;;;;18.56;32.56;100821.53;16105031;19;131160;-48
2023/03/12 03:06:03;;;;;;;3.50;2.10;;;;;;;18.55;32.70;100821.78;16085548;19;131268;-48
2023/03/12 03:11:25;;;;;;;4.72;2.38;;;;;;;18.53;32.84;100826.72;16105842;19;131454;-48
2023/03/12 03:16:47;;;;;;;6.10;2.25;;;;;;;18.51;32.90;100834.44;16111624;19;130200;-48
2023/03/12 03:22:08;;;;;;;4.35;2.22;;;;;;;18.49;32.68;100828.28;16126896;19;131441;-52
2023/03/12 03:27:30;;;;;;;6.25;2.58;;;;;;;18.48;32.78;100810.00;16124216;19;131219;-49
2023/03/12 03:32:52;;;;;;;5.15;1.88;;;;;;;18.45;32.53;100776.19;16124086;19;131045;-53
2023/03/12 03:38:14;;;;;;;3.95;1.90;;;;;;;18.44;32.80;100784.72;16125208;19;130525;-54
2023/03/12 03:43:36;;;;;;;4.38;2.05;;;;;;;18.42;32.86;100778.59;16122745;19;135106;-52
2023/03/12 03:48:58;;;;;;;3.95;2.03;;;;;;;18.41;32.83;100775.00;16121681;19;131126;-48
2023/03/12 03:54:20;;;;;;;4.00;2.03;;;;;;;18.39;32.71;100759.69;16123083;19;129648;-51
2023/03/12 03:59:41;;;;;;;4.35;2.00;;;;;;;18.36;32.53;100769.31;16118930;19;130660;-53
2023/03/12 04:05:04;;;;;;;3.08;1.75;;;;;;;18.35;32.61;100775.94;16120993;19;130434;-53
2023/03/12 04:10:25;;;;;;;3.85;1.70;;;;;;;18.32;32.54;100768.16;16121239;19;129470;-47
2023/03/12 04:15:52;;;;;;;2.90;1.77;;;;;;;18.33;32.61;100766.19;16123523;19;129492;-50
2023/03/12 04:21:14;;;;;;;4.60;1.88;;;;;;;18.30;32.76;100764.78;16120582;19;130615;-53
2023/03/12 04:26:36;;;;;;;2.80;1.77;;;;;;;18.28;32.30;100766.94;16122372;19;129557;-53
2023/03/12 04:31:57;;;;;;;4.10;1.75;;;;;;;18.27;32.73;100756.97;16115805;19;131447;-52
2023/03/12 04:37:19;;;;;;;4.13;1.80;;;;;;;18.24;32.72;100751.91;16117996;19;129332;-51
2023/03/12 04:42:41;;;;;;;2.92;1.50;;;;;;;18.23;32.31;100750.22;16119940;19;131087;-50
2023/03/12 04:48:03;;;;;;;3.00;1.55;;;;;;;18.22;32.68;100734.69;16116701;19;130150;-53
2023/03/12 04:53:25;;;;;;;2.47;1.30;;;;;;;18.21;32.67;100713.66;16116505;19;129342;-51
2023/03/12 04:58:47;;;;;;;3.63;1.45;;;;;;;18.20;32.77;100700.91;16117747;19;129205;-52
2023/03/12 05:04:08;;;;;;;2.92;1.65;;;;;;;18.19;32.49;100704.75;16116142;19;129645;-50
2023/03/12 05:09:30;;;;;;;4.03;1.48;;;;;;;18.15;32.40;100688.63;16113414;19;130167;-52
2023/03/12 05:14:52;;;;;;;3.67;1.42;;;;;;;18.15;32.49;100696.13;16118806;19;129758;-48
2023/03/12 05:20:14;;;;;;;2.90;1.40;;;;;;;18.13;32.77;100695.53;16113580;19;130094;-54
2023/03/12 05:25:40;;;;;;;3.95;1.58;;;;;;;18.13;32.35;100701.88;16115196;19;130933;-53
2023/03/12 05:31:09;;;;;;;3.47;1.27;;;;;;;18.11;32.57;100690.22;16118329;19;130421;-53
2023/03/12 05:36:31;;;;;;;3.22;1.70;;;;;;;18.09;32.60;100692.38;16118046;19;133265;-49
2023/03/12 05:41:55;;;;;;;2.58;1.40;;;;;;;18.07;32.50;100689.06;16117273;19;130695;-49
2023/03/12 05:47:17;;;;;;;4.13;1.60;;;;;;;18.07;32.37;100697.34;16117939;19;130457;-52
2023/03/12 05:52:39;;;;;;;1.95;0.98;;;;;;;18.06;32.36;100700.34;16114769;19;130709;-49
2023/03/12 05:58:02;;;;;;;2.78;1.20;;;;;;;18.04;32.80;100699.75;16113746;19;131261;-49
2023/03/12 06:03:24;;;;;;;2.20;1.38;;;;;;;18.03;32.51;100693.41;16114289;19;129720;-52
2023/03/12 06:08:45;;;;;;;1.92;1.33;;;;;;;18.02;32.75;100696.44;16114780;19;129544;-51
2023/03/12 06:14:07;;;;;;;2.17;1.30;;;;;;;18.01;32.85;100698.34;16113771;19;129187;-54
2023/03/12 06:19:29;;;;;;;2.88;1.38;;;;;;;17.99;32.40;100698.59;16115681;19;131459;-51
2023/03/12 06:24:51;;;;;;;1.60;1.08;;;;;;;17.99;32.72;100692.19;16110353;19;130219;-54
2023/03/12 06:30:13;;;;;;;1.58;0.93;;;;;;;17.98;32.61;100685.84;16112278;19;129543;-52
2023/03/12 06:35:35;;;;;;;3.63;1.25;;;;;;;17.97;32.84;100686.91;16113700;19;129667;-50
2023/03/12 06:41:08;;;;;;;2.95;1.30;;;;;;;18.03;32.73;100673.19;16108674;19;131187;-51
2023/03/12 06:46:30;;;;;;;5.38;1.30;;;;;;;18.33;32.66;100663.75;16109525;19;129355;-50
2023/03/12 06:51:53;;;;;;;6.28;1.20;;;;;;;18.94;32.05;100666.69;16112800;19;132097;-50
2023/03/12 06:57:15;;;;;;;2.20;1.10;;;;;;;19.59;31.24;100678.09;16130844;19;130315;-51
2023/03/12 07:02:37;;;;;;;8.13;1.25;;;;;;;20.11;30.45;100673.13;16126957;19;129833;-48
2023/03/12 07:07:59;;;;;;;3.10;1.05;;;;;;;20.39;29.94;100680.34;16126028;19;128998;-51
2023/03/12 07:13:20;;;;;;;5.10;1.10;;;;;;;20.48;30.14;100677.91;16127755;19;130122;-52
2023/03/12 07:18:42;;;;;;;3.45;1.10;;;;;;;20.46;30.31;100671.78;16123899;19;129656;-50
2023/03/12 07:24:08;;;;;;;4.95;1.23;;;;;;;20.37;30.26;100687.28;16126374;19;130309;-51
2023/03/12 07:29:29;;;;;;;9.43;1.15;;;;;;;20.21;30.11;100684.34;16125152;19;130699;-50
2023/03/12 07:34:51;;;;;;;3.83;1.40;;;;;;;20.07;30.50;100689.50;16121409;19;134557;-46
2023/03/12 07:40:13;;;;;;;4.28;0.95;;;;;;;19.92;30.65;100690.16;16126716;19;130475;-48
2023/03/12 07:45:35;;;;;;;10.43;1.67;;;;;;;19.78;30.64;100691.66;16125898;19;130083;-52
2023/03/12 07:50:56;;;;;;;13.90;1.50;;;;;;;19.64;30.92;100696.75;16126085;19;132252;-51
2023/03/12 07:56:18;;;;;;;15.27;1.40;;;;;;;19.51;31.35;100707.13;16121070;19;130598;-52
2023/03/12 08:01:40;;;;;;;11.52;1.30;;;;;;;19.40;31.63;100690.63;16117003;19;129712;-51
2023/03/12 08:07:05;;;;;;;12.47;1.53;;;;;;;19.30;31.48;100694.94;16120589;19;130678;-48
2023/03/12 08:12:29;;;;;;;9.33;1.50;;;;;;;19.20;31.69;100705.88;16121043;19;131791;-49
2023/03/12 08:17:51;;;;;;;11.38;1.50;;;;;;;19.15;32.05;100711.34;16123133;19;133352;-51
2023/03/12 08:23:13;;;;;;;9.88;1.48;;;;;;;19.29;31.51;100728.47;16116249;19;129535;-46
2023/03/12 08:28:35;;;;;;;11.02;1.10;;;;;;;19.64;31.27;100735.59;16126883;19;130938;-47
2023/03/12 08:33:56;;;;;;;11.30;1.77;;;;;;;20.10;30.95;100746.44;16121796;19;134346;-46
2023/03/12 08:39:18;;;;;;;17.08;2.00;;;;;;;20.44;31.01;100743.44;16124798;19;129714;-51
2023/03/12 08:44:40;;;;;;;16.50;2.20;;;;;;;20.59;30.79;100751.94;16124441;19;129337;-46
2023/03/12 08:50:01;;;;;;;13.35;2.00;;;;;;;20.62;30.74;100749.75;16121548;19;129629;-48
2023/03/12 08:55:26;;;;;;;16.63;2.03;;;;;;;20.54;31.11;100760.25;16125600;19;129444;-47
2023/03/12 09:00:48;;;;;;;11.07;2.00;;;;;;;20.46;31.28;100769.03;16125949;19;131534;-49
2023/03/12 09:06:15;;;;;;;8.57;1.30;;;;;;;20.38;31.15;100773.13;16123261;19;129813;-44
2023/03/12 09:11:41;;;;;;;18.02;2.17;;;;;;;20.29;31.56;100775.56;16121880;19;129293;-44
2023/03/12 09:17:06;;;;;;;14.65;2.13;;;;;;;20.16;31.58;100770.41;16118793;19;129761;-44
2023/03/12 09:22:29;;;;;;;10.82;1.95;;;;;;;20.06;31.56;100765.56;16121604;19;129521;-45
2023/03/12 09:27:51;;;;;;;11.10;2.10;;;;;;;19.97;32.08;100772.66;16121915;19;129621;-48
2023/03/12 09:33:14;;;;;;;13.88;1.75;;;;;;;19.88;31.93;100777.81;16119129;19;129718;-51
2023/03/12 09:38:36;;;;;;;11.30;1.85;;;;;;;19.82;32.46;100776.06;16120336;19;129565;-45
2023/03/12 09:44:03;;;;;;;13.05;2.08;;;;;;;19.76;32.24;100782.66;16120848;19;129668;-46
2023/03/12 09:49:25;;;;;;;6.15;1.90;;;;;;;19.67;32.74;100791.44;16116924;19;129788;-46
2023/03/12 09:54:58;;;;;;;11.45;2.28;;;;;;;19.61;32.82;100803.56;16120007;19;129609;-47
2023/03/12 10:00:28;;;;;;;12.93;2.67;;;;;;;19.53;32.86;100792.91;16120206;19;129548;-47
2023/03/12 10:06:14;;;;;;;19.42;3.70;;;;;;;19.51;33.67;100790.38;16117781;19;129452;-47
2023/03/12 10:11:38;;;;;;;17.33;2.57;;;;;;;19.60;33.47;100807.44;16118006;19;129563;-46
2023/03/12 10:17:21;;;;;;;20.38;2.97;;;;;;;19.75;33.19;100808.75;16118214;19;129526;-46
2023/03/12 10:23:06;;;;;;;16.30;3.28;;;;;;;19.88;33.47;100796.44;16118995;19;129366;-45
2023/03/12 10:28:34;;;;;;;18.83;3.33;;;;;;;20.01;32.88;100789.66;16125698;19;129769;-46
2023/03/12 10:34:00;;;;;;;14.07;2.88;;;;;;;20.09;33.25;100780.88;16132747;19;129544;-46
2023/03/12 10:39:22;;;;;;;18.88;3.03;;;;;;;20.08;32.80;100790.28;16130131;19;129745;-46
2023/03/12 10:44:52;;;;;;;16.88;3.10;;;;;;;20.06;33.13;100787.78;16128734;19;129374;-45
2023/03/12 10:50:20;;;;;;;13.80;3.35;;;;;;;20.00;33.06;100799.91;16133018;19;129103;-45
2023/03/12 10:55:41;;;;;;;14.43;3.17;;;;;;;19.93;32.88;100802.88;16131751;19;130163;-46
2023/03/12 11:01:14;;;;;;;20.33;3.53;;;;;;;19.86;32.99;100796.66;16128385;19;129568;-48
2023/03/12 11:06:36;;;;;;;14.48;3.35;;;;;;;19.78;33.26;100797.13;16130522;19;129433;-47
2023/03/12 11:11:58;;;;;;;11.25;3.03;;;;;;;19.68;32.92;100797.81;16129836;19;129621;-46
2023/03/12 11:17:24;;;;;;;13.30;3.08;;;;;;;19.63;33.29;100797.78;16129967;19;131347;-47
2023/03/12 11:22:45;;;;;;;10.70;3.10;;;;;;;19.56;33.00;100797.09;16131589;19;129513;-46
2023/03/12 11:28:16;;;;;;;16.35;3.28;;;;;;;19.52;33.52;100800.38;16128827;19;129375;-48
2023/03/12 11:33:38;;;;;;;14.02;3.33;;;;;;;19.48;33.56;100799.22;16130068;19;130698;-47
2023/03/12 11:39:15;;;;;;;13.77;3.25;;;;;;;19.46;33.24;100798.63;16129051;19;130603;-50
2023/03/12 11:44:58;;;;;;;14.70;3.38;;;;;;;19.48;33.54;100792.81;16130482;19;135006;-47
2023/03/12 11:50:20;;;;;;;13.40;3.53;;;;;;;19.56;33.60;100795.19;16127890;19;129650;-45
2023/03/12 11:55:42;;;;;;;11.65;3.20;;;;;;;19.78;33.22;100808.22;16128522;19;131074;-44
2023/03/12 12:01:17;;;;;;;13.30;3.60;;;;;;;20.05;32.78;100788.06;16132070;19;130381;-50
2023/03/12 12:07:03;;;;;;;15.38;3.53;;;;;;;20.29;32.87;100791.38;16126653;19;129600;-44
2023/03/12 12:12:39;;;;;;;11.47;2.77;;;;;;;20.48;32.25;100777.97;16126023;19;130030;-46
2023/03/12 12:18:25;;;;;;;10.93;3.38;;;;;;;20.67;32.15;100772.03;16125048;19;129200;-49
2023/03/12 12:24:01;;;;;;;17.92;3.42;;;;;;;20.78;31.83;100767.41;16126135;19;129515;-47
2023/03/12 12:29:48;;;;;;;10.07;2.92;;;;;;;20.76;32.02;100767.69;16124588;19;129383;-44
2023/03/12 12:35:34;;;;;;;13.60;3.78;;;;;;;20.70;32.12;100757.59;16124748;19;129370;-44
2023/03/12 12:41:07;;;;;;;16.77;4.20;;;;;;;20.57;32.19;100754.13;16126417;19;129494;-51
2023/03/12 12:46:35;;;;;;;12.95;3.65;;;;;;;20.46;32.25;100741.25;16119910;19;129553;-51
2023/03/12 12:52:01;;;;;;;13.95;3.75;;;;;;;20.35;32.22;100750.59;16120698;19;129705;-49
2023/03/12 12:57:41;;;;;;;20.85;4.22;;;;;;;20.24;32.43;100733.81;16122698;19;129718;-47
2023/03/12 13:03:03;;;;;;;19.50;3.97;;;;;;;20.10;32.84;100718.66;16124269;19;129366;-49
2023/03/12 13:08:33;;;;;;;17.48;4.57;;;;;;;19.99;32.51;100721.34;16120177;19;129707;-48
2023/03/12 13:14:04;;;;;;;15.02;3.45;;;;;;;19.92;32.68;100726.25;16119931;19;129735;-44
2023/03/12 13:19:26;;;;;;;16.77;3.83;;;;;;;19.82;33.04;100706.66;16120771;19;131947;-49
2023/03/12 13:25:03;;;;;;;18.92;4.15;;;;;;;19.77;32.98;100718.56;16121571;19;129319;-42
2023/03/12 13:30:31;;;;;;;25.52;4.30;;;;;;;19.75;32.95;100722.69;16121054;19;130521;-47
2023/03/12 13:36:22;;;;;;;21.80;5.30;;;;;;;19.80;33.20;100711.66;16117266;19;130087;-44
2023/03/12 13:41:44;;;;;;;20.20;5.15;;;;;;;19.88;33.14;100697.31;16117114;19;129848;-51
2023/03/12 13:47:22;;;;;;;23.77;5.80;;;;;;;20.02;32.93;100708.88;16111521;19;129717;-47
2023/03/12 13:52:53;;;;;;;15.55;4.25;;;;;;;20.12;32.17;100703.41;16110711;19;130108;-47
2023/03/12 13:58:20;;;;;;;17.98;4.72;;;;;;;20.19;32.24;100717.09;16116944;19;129968;-51
2023/03/12 14:03:48;;;;;;;19.63;4.53;;;;;;;20.25;32.58;100729.94;16114009;19;130261;-47
2023/03/12 14:09:31;;;;;;;23.42;5.05;;;;;;;20.28;32.44;100739.69;16117095;19;129546;-45
2023/03/12 14:15:24;;;;;;;27.20;4.78;;;;;;;20.26;32.54;100753.00;16116736;19;129726;-48
2023/03/12 14:20:54;;;;;;;20.02;4.43;;;;;;;20.21;32.51;100756.56;16113959;19;131935;-45
2023/03/12 14:26:23;;;;;;;26.52;5.20;;;;;;;20.14;32.40;100761.50;16115587;19;129710;-51
2023/03/12 14:31:47;;;;;;;21.25;4.80;;;;;;;20.05;32.47;100751.97;16116316;19;130728;-46
2023/03/12 14:37:17;;;;;;;17.48;4.63;;;;;;;19.98;32.67;100763.22;16116646;19;130626;-48
2023/03/12 14:42:39;;;;;;;21.70;4.93;;;;;;;19.91;32.29;100759.81;16106906;19;130860;-49
2023/03/12 14:48:01;;;;;;;22.65;4.85;;;;;;;19.85;32.42;100747.78;16106727;19;129590;-46
2023/03/12 14:53:37;;;;;;;17.63;4.75;;;;;;;19.83;32.65;100747.22;16105917;19;130691;-50
2023/03/12 14:59:03;;;;;;;16.23;4.13;;;;;;;19.75;32.70;100762.41;16104799;19;130247;-47
2023/03/12 15:04:25;;;;;;;22.95;4.78;;;;;;;19.67;32.80;100763.69;16102240;19;129481;-50
2023/03/12 15:09:50;;;;;;;30.40;5.28;;;;;;;19.62;32.77;100760.84;16104140;19;130376;-48
2023/03/12 15:15:38;;;;;;;28.77;5.60;;;;;;;19.60;32.84;100762.19;16110963;19;130475;-49
2023/03/12 15:21:01;;;;;;;30.27;5.40;;;;;;;19.55;32.77;100749.09;16122256;19;129643;-51
2023/03/12 15:26:23;;;;;;;36.70;5.65;;;;;;;19.57;33.03;100763.53;16123987;19;131512;-47
2023/03/12 15:31:47;;;;;;;28.55;5.05;;;;;;;19.62;33.00;100748.91;16124129;19;130732;-46
2023/03/12 15:37:34;;;;;;;30.90;5.43;;;;;;;19.67;33.55;100752.59;16122665;19;129596;-47
2023/03/12 15:43:00;;;;;;;38.35;6.28;;;;;;;19.71;33.22;100746.50;16124994;19;130816;-45
2023/03/12 15:48:47;;;;;;;36.15;6.22;;;;;;;19.74;33.51;100746.00;16120537;19;129111;-46
2023/03/12 15:54:30;;;;;;;34.90;5.28;;;;;;;19.74;33.54;100740.44;16119535;19;129793;-48
2023/03/12 16:00:12;;;;;;;26.20;5.03;;;;;;;19.73;33.24;100747.09;16122000;19;131255;-46
2023/03/12 16:05:38;;;;;;;38.35;5.57;;;;;;;19.68;33.44;100740.41;16120745;19;130627;-44
2023/03/12 16:10:59;;;;;;;36.92;5.38;;;;;;;19.71;33.57;100754.81;16120225;19;130614;-44
2023/03/12 16:16:21;;;;;;;27.17;5.32;;;;;;;19.74;34.04;100746.00;16127116;19;131931;-45
2023/03/12 16:21:44;;;;;;;27.52;5.47;;;;;;;19.77;34.03;100734.38;16121694;19;129686;-47
2023/03/12 16:27:13;;;;;;;22.40;4.03;;;;;;;19.79;34.13;100733.00;16122417;19;129784;-44
2023/03/12 16:32:41;;;;;;;19.40;4.28;;;;;;;19.87;33.87;100731.72;16121314;19;129629;-44
2023/03/12 16:38:03;;;;;;;14.60;3.70;;;;;;;20.08;34.04;100737.53;16120322;19;131181;-44
2023/03/12 16:43:28;;;;;;;21.55;4.78;;;;;;;20.30;34.04;100743.03;16122781;19;129781;-44
2023/03/12 16:48:54;;;;;;;14.77;3.63;;;;;;;20.51;33.97;100743.25;16121183;19;129983;-45
2023/03/12 16:54:15;;;;;;;17.17;3.90;;;;;;;20.73;33.33;100745.94;16120249;19;131182;-43
2023/03/12 16:59:37;;;;;;;21.63;4.15;;;;;;;20.88;33.49;100740.53;16115900;19;129933;-44
2023/03/12 17:04:59;;;;;;;16.35;4.05;;;;;;;21.00;33.46;100739.50;16114544;19;131256;-50
2023/03/12 17:10:22;;;;;;;16.98;4.22;;;;;;;21.03;32.97;100750.13;16119530;19;129543;-46
2023/03/12 17:15:44;;;;;;;20.13;3.90;;;;;;;20.97;32.85;100738.13;16114618;19;129640;-42
2023/03/12 17:21:11;;;;;;;18.00;4.18;;;;;;;20.86;32.69;100739.13;16116803;19;131850;-49
2023/03/12 17:26:33;;;;;;;16.67;3.80;;;;;;;20.78;33.12;100743.25;16113012;19;129561;-45
2023/03/12 17:31:54;;;;;;;17.50;4.25;;;;;;;20.69;33.25;100740.09;16116289;19;129828;-45
2023/03/12 17:37:16;;;;;;;13.82;3.63;;;;;;;20.60;32.87;100745.28;16114126;19;131271;-42
2023/03/12 17:42:38;;;;;;;15.48;4.20;;;;;;;20.50;32.99;100742.41;16115816;19;130101;-42
2023/03/12 17:48:00;;;;;;;19.02;5.10;;;;;;;20.39;33.13;100749.81;16113932;19;129779;-43
2023/03/12 17:53:21;;;;;;;25.67;5.00;;;;;;;20.31;33.38;100755.00;16115032;19;131695;-42
2023/03/12 17:58:44;;;;;;;18.80;5.75;;;;;;;20.18;33.41;100748.78;16110748;19;130384;-47
2023/03/12 18:04:06;;;;;;;18.90;4.75;;;;;;;20.09;33.31;100747.53;16114783;19;131420;-43
2023/03/12 18:09:27;;;;;;;24.65;5.60;;;;;;;20.00;33.17;100752.72;16113314;19;129677;-44
2023/03/12 18:14:49;;;;;;;22.75;6.00;;;;;;;19.93;33.30;100750.13;16114767;19;129486;-45
2023/03/12 18:20:13;;;;;;;37.65;13.23;;;;;;;19.81;33.93;100744.69;16111041;19;130420;-46
2023/03/12 18:25:46;;;;;;;31.15;14.07;;;;;;;19.78;33.68;100739.66;16112411;19;129991;-43
2023/03/12 18:31:08;;;;;;;33.88;20.02;;;;;;;19.81;33.94;100744.69;16114985;19;129670;-44
2023/03/12 18:36:30;;;;;;;45.50;27.45;;;;;;;19.91;34.18;100735.66;16106148;19;129877;-51
2023/03/12 18:41:54;;;;;;;36.08;23.38;;;;;;;20.32;34.16;100729.75;16113148;19;129977;-52
2023/03/12 18:47:17;;;;;;;41.00;23.50;;;;;;;20.74;33.51;100726.22;16120607;19;130485;-58
2023/03/12 18:52:39;;;;;;;41.13;22.83;;;;;;;21.03;33.10;100720.34;16125119;19;130184;-56
2023/03/12 18:58:01;;;;;;;33.97;21.00;;;;;;;21.16;32.78;100705.13;16120409;19;131278;-56
2023/03/12 19:03:24;;;;;;;48.15;22.45;;;;;;;21.19;33.22;100700.97;16123827;19;129502;-56
2023/03/12 19:08:46;;;;;;;36.55;20.52;;;;;;;21.16;32.99;100691.22;16121454;19;129645;-57
2023/03/12 19:14:08;;;;;;;34.20;19.05;;;;;;;21.09;33.09;100682.28;16122137;19;129436;-58
2023/03/12 19:19:29;;;;;;;33.20;20.23;;;;;;;21.00;33.07;100679.16;16120287;19;131231;-58
2023/03/12 19:24:52;;;;;;;41.25;22.55;;;;;;;20.88;33.74;100684.94;16121062;19;131045;-56
2023/03/12 19:30:14;;;;;;;42.10;23.15;;;;;;;20.79;33.83;100669.00;16126929;19;129702;-57
2023/03/12 19:35:38;;;;;;;42.95;22.80;;;;;;;20.70;34.02;100657.50;16123379;19;129410;-57
2023/03/12 19:41:00;;;;;;;42.50;20.60;;;;;;;20.67;34.00;100644.16;16125612;19;130037;-56
2023/03/12 19:46:21;;;;;;;53.25;21.20;;;;;;;20.64;34.23;100634.41;16124244;19;131331;-56
2023/03/12 19:51:43;;;;;;;47.50;20.42;;;;;;;20.58;34.60;100622.41;16120392;19;131361;-55
2023/03/12 19:57:05;;;;;;;35.05;19.52;;;;;;;20.53;34.69;100611.28;16123436;19;130693;-56
2023/03/12 20:02:27;;;;;;;34.22;19.35;;;;;;;20.49;34.54;100599.00;16117615;19;130095;-56
2023/03/12 20:07:51;;;;;;;34.28;18.40;;;;;;;20.56;34.44;100591.25;16120694;19;129973;-55
2023/03/12 20:13:16;;;;;;;43.10;17.95;;;;;;;20.81;34.17;100578.66;16118565;19;130663;-55
2023/03/12 20:18:38;;;;;;;;;;;;;;;21.19;33.80;100582.19;16123514;19;130168;-55
2023/03/12 20:24:01;;;;;;;32.28;14.10;;;;;;;21.61;33.48;100574.00;16120560;19;129750;-55
2023/03/12 20:29:23;;;;;;;28.15;13.68;;;;;;;21.93;33.47;100581.25;16114521;19;131085;-56
2023/03/12 20:34:44;;;;;;;27.15;12.25;;;;;;;22.19;32.87;100578.47;16113762;19;129642;-57
2023/03/12 20:40:07;;;;;;;33.83;11.43;;;;;;;22.37;32.63;100572.38;16115709;19;131199;-58
2023/03/12 20:45:32;;;;;;;32.33;10.60;;;;;;;22.44;32.78;100566.53;16118390;19;130612;-53
2023/03/12 20:50:54;;;;;;;;;;;;;;;22.40;33.15;100560.66;16122309;19;130193;-56
2023/03/12 20:56:16;;;;;;;29.83;9.93;;;;;;;22.40;33.37;100552.28;16123498;19;129226;-56
2023/03/12 21:01:38;;;;;;;35.30;10.07;;;;;;;22.32;32.98;100536.16;16113736;19;132043;-56
2023/03/12 21:07:00;;;;;;;29.48;8.85;;;;;;;22.26;33.19;100534.50;16108244;19;130906;-57
2023/03/12 21:12:22;;;;;;;20.33;8.00;;;;;;;22.17;32.88;100527.78;16119797;19;129592;-56
2023/03/12 21:17:43;;;;;;;25.88;7.60;;;;;;;22.07;33.13;100517.50;16119822;19;128961;-56
2023/03/12 21:23:07;;;;;;;27.08;8.13;;;;;;;21.98;32.85;100509.69;16116757;19;129700;-55
2023/03/12 21:28:29;;;;;;;29.83;7.25;;;;;;;21.88;33.08;100503.28;16111530;19;131021;-57
2023/03/12 21:33:57;;;;;;;24.80;7.03;;;;;;;21.80;32.99;100493.56;16115439;19;130119;-55
2023/03/12 21:39:21;;;;;;;20.95;6.03;;;;;;;21.69;33.05;100472.38;16114409;19;129567;-57
2023/03/12 21:44:43;;;;;;;20.60;6.13;;;;;;;21.57;32.93;100472.66;16116754;19;129992;-56
2023/03/12 21:50:06;;;;;;;20.48;5.93;;;;;;;21.44;33.50;100469.28;16111753;19;129651;-57
2023/03/12 21:55:27;;;;;;;16.92;5.40;;;;;;;21.31;33.62;100447.56;16115177;19;130140;-58
2023/03/12 22:00:49;;;;;;;25.00;5.30;;;;;;;21.17;33.38;100445.31;16118062;19;130803;-58
2023/03/12 22:06:13;;;;;;;14.18;4.90;;;;;;;21.07;33.18;100428.59;16114432;19;129441;-56
2023/03/12 22:11:34;;;;;;;17.73;4.85;;;;;;;20.95;33.82;100414.13;16114494;19;130816;-56
2023/03/12 22:16:56;;;;;;;16.60;4.78;;;;;;;20.86;33.89;100399.94;16117207;19;129549;-56
2023/03/12 22:22:18;;;;;;;12.60;4.32;;;;;;;20.75;33.91;100386.00;16112360;19;129885;-56
2023/03/12 22:27:40;;;;;;;15.32;3.97;;;;;;;20.67;33.70;100375.38;16112115;19;129428;-54
2023/03/12 22:33:01;;;;;;;9.95;3.83;;;;;;;20.59;33.94;100368.41;16114257;19;130363;-56
2023/03/12 22:38:24;;;;;;;15.52;4.20;;;;;;;20.51;33.94;100360.63;16113090;19;129346;-57
2023/03/12 22:43:48;;;;;;;12.57;3.63;;;;;;;20.45;33.86;100353.34;16111645;19;129282;-57
2023/03/12 22:49:09;;;;;;;14.80;3.60;;;;;;;20.38;33.72;100350.81;16112687;19;129648;-57
2023/03/12 22:54:32;;;;;;;15.63;4.15;;;;;;;20.33;33.88;100336.09;16112235;19;131368;-57
2023/03/12 22:59:54;;;;;;;16.23;4.25;;;;;;;20.27;34.09;100329.69;16113556;19;129744;-56
2023/03/12 23:05:16;;;;;;;14.10;3.70;;;;;;;20.20;33.73;100316.03;16112181;19;129636;-57
2023/03/12 23:10:38;;;;;;;11.18;2.95;;;;;;;20.16;34.02;100302.97;16103748;19;129600;-56
2023/03/12 23:16:05;;;;;;;10.63;3.50;;;;;;;20.11;33.77;100289.91;16109106;19;129805;-56
2023/03/12 23:21:27;;;;;;;11.32;3.88;;;;;;;20.05;34.35;100266.84;16107805;19;130319;-56
2023/03/12 23:26:48;;;;;;;11.32;3.20;;;;;;;20.01;34.14;100262.09;16108740;19;131387;-56
2023/03/12 23:32:10;;;;;;;6.80;2.45;;;;;;;19.96;33.98;100246.25;16108025;19;130020;-56
2023/03/12 23:37:32;;;;;;;9.45;2.97;;;;;;;19.91;33.87;100235.94;16120553;19;130604;-53
2023/03/12 23:42:53;;;;;;;14.07;3.72;;;;;;;19.88;34.34;100222.59;16121227;19;129589;-55
2023/03/12 23:48:15;;;;;;;13.00;3.47;;;;;;;19.85;34.10;100214.81;16117182;19;129744;-56
2023/03/12 23:53:38;;;;;;;8.25;2.65;;;;;;;19.82;34.43;100215.34;16118034;19;130919;-56
2023/03/12 23:59:00;;;;;;;7.63;2.95;;;;;;;19.78;34.31;100198.41;16117968;19;130558;-57
